Time;durP1;ratioP1;P1;durP2;ratioP2;P2;SDS_P1;SDS_P2;PMS_P1;PMS_P2;Temp;Humidity;BMP_temperature;BMP_pressure;BME280_temperature;BME280_humidity;BME280_pressure;Samples;Min_cycle;Max_cycle;Signal;HPM_P1;HPM_P2
2023/03/09 00:00:48;;;;;;;5.20;1.30;;;9.50;99.90;;;;;;5043207;28;20036;-79
2023/03/09 00:03:17;;;;;;;4.00;1.30;;;9.70;99.90;;;;;;5040968;28;20054;-79
2023/03/09 00:05:57;;;;;;;1.93;1.00;;;10.00;99.90;;;;;;5037909;28;20147;-78
2023/03/09 00:08:23;;;;;;;5.47;1.73;;;10.20;99.90;;;;;;5046149;28;20021;-79
2023/03/09 00:10:51;;;;;;;5.30;1.40;;;10.30;99.90;;;;;;5039931;28;20444;-78
2023/03/09 00:13:21;;;;;;;3.67;1.17;;;10.40;99.90;;;;;;5037602;28;20128;-79
2023/03/09 00:15:50;;;;;;;3.77;1.67;;;10.50;99.90;;;;;;5032092;28;20021;-79
2023/03/09 00:18:19;;;;;;;2.77;1.10;;;10.70;99.90;;;;;;5042514;28;20017;-79
2023/03/09 00:20:45;;;;;;;1.70;1.10;;;10.60;99.90;;;;;;5037824;28;20479;-78
2023/03/09 00:23:11;;;;;;;1.87;1.10;;;10.70;99.90;;;;;;5039834;28;20100;-78
2023/03/09 00:25:37;;;;;;;1.73;1.10;;;10.70;99.90;;;;;;5040806;28;20537;-78
2023/03/09 00:28:04;;;;;;;1.50;0.80;;;10.80;99.90;;;;;;5040058;28;20028;-78
2023/03/09 00:30:29;;;;;;;2.03;1.30;;;10.80;99.90;;;;;;5041518;28;20421;-78
2023/03/09 00:32:55;;;;;;;2.60;0.90;;;10.70;99.90;;;;;;5040297;28;20018;-79
2023/03/09 00:35:20;;;;;;;1.27;0.93;;;10.70;99.90;;;;;;5039554;28;20028;-79
2023/03/09 00:37:46;;;;;;;2.40;0.93;;;10.70;99.90;;;;;;5039636;28;20155;-78
2023/03/09 00:40:14;;;;;;;1.57;0.70;;;10.60;99.90;;;;;;5040150;28;20025;-79
2023/03/09 00:42:42;;;;;;;1.90;0.97;;;10.50;99.90;;;;;;5036623;28;20021;-78
2023/03/09 00:45:08;;;;;;;1.20;0.97;;;10.50;99.90;;;;;;5043207;28;20025;-79
2023/03/09 00:47:34;;;;;;;2.13;1.00;;;10.50;99.90;;;;;;5037357;28;20049;-79
2023/03/09 00:50:00;;;;;;;1.37;0.80;;;10.50;99.90;;;;;;5036497;28;20022;-79
2023/03/09 00:52:25;;;;;;;3.17;0.90;;;10.40;99.90;;;;;;5039945;28;20095;-79
2023/03/09 00:54:53;;;;;;;1.87;0.90;;;10.40;99.90;;;;;;5046637;28;20025;-79
2023/03/09 00:57:20;;;;;;;0.90;0.80;;;10.30;99.90;;;;;;5040914;28;20024;-78
2023/03/09 00:59:45;;;;;;;0.83;0.80;;;10.30;99.90;;;;;;5031065;28;20018;-79
2023/03/09 01:02:11;;;;;;;1.80;0.80;;;10.30;99.90;;;;;;5040990;28;20029;-79
2023/03/09 01:04:37;;;;;;;1.37;0.80;;;10.40;99.90;;;;;;5035654;28;20016;-78
2023/03/09 01:07:02;;;;;;;2.30;1.00;;;10.30;99.90;;;;;;5034845;28;20087;-78
2023/03/09 01:09:28;;;;;;;2.03;0.80;;;10.30;99.90;;;;;;5032251;28;20022;-78
2023/03/09 01:11:54;;;;;;;1.23;1.00;;;10.20;99.90;;;;;;5036201;28;20131;-78
2023/03/09 01:14:19;;;;;;;1.23;0.70;;;10.20;99.90;;;;;;5034057;28;20044;-78
2023/03/09 01:16:45;;;;;;;1.13;0.80;;;10.10;99.90;;;;;;5038018;28;20025;-78
2023/03/09 01:19:10;;;;;;;6.70;0.70;;;10.10;99.90;;;;;;5038704;28;20037;-79
2023/03/09 01:21:36;;;;;;;1.67;0.70;;;10.10;99.90;;;;;;5037412;28;20021;-79
2023/03/09 01:24:01;;;;;;;2.13;0.80;;;10.00;99.90;;;;;;5043075;28;20471;-79
2023/03/09 01:26:27;;;;;;;1.30;0.90;;;10.00;99.90;;;;;;5036675;28;20547;-79
2023/03/09 01:28:52;;;;;;;1.67;0.80;;;10.10;99.90;;;;;;5037662;28;20013;-79
2023/03/09 01:31:18;;;;;;;0.90;0.60;;;10.00;99.90;;;;;;5039835;28;20029;-79
2023/03/09 01:33:44;;;;;;;1.07;0.80;;;10.00;99.90;;;;;;5033138;28;20092;-79
2023/03/09 01:36:13;;;;;;;1.27;0.70;;;10.00;99.90;;;;;;5036405;28;20106;-79
2023/03/09 01:38:39;;;;;;;0.67;0.50;;;10.00;99.90;;;;;;5037203;28;20028;-79
2023/03/09 01:41:05;;;;;;;0.97;0.77;;;10.10;99.90;;;;;;5040933;28;20034;-79
2023/03/09 01:43:47;;;;;;;1.43;0.90;;;10.10;99.90;;;;;;5041955;28;20428;-79
2023/03/09 01:46:28;;;;;;;4.50;1.00;;;10.20;99.90;;;;;;5035699;28;20021;-79
2023/03/09 01:49:25;;;;;;;1.07;0.80;;;10.20;99.90;;;;;;5039068;28;20601;-79
2023/03/09 01:52:15;;;;;;;0.77;0.70;;;10.20;99.90;;;;;;5027112;28;20032;-80
2023/03/09 01:54:47;;;;;;;0.80;0.70;;;10.20;99.90;;;;;;5034009;28;20367;-80
2023/03/09 01:57:20;;;;;;;0.53;0.53;;;10.30;99.90;;;;;;5037036;28;20025;-79
2023/03/09 01:59:48;;;;;;;0.93;0.60;;;10.40;99.90;;;;;;5032658;28;20694;-80
2023/03/09 02:02:16;;;;;;;0.80;0.80;;;10.40;99.90;;;;;;5043092;28;20154;-79
2023/03/09 02:04:47;;;;;;;1.23;0.50;;;10.40;99.90;;;;;;5043276;28;20378;-79
2023/03/09 02:07:16;;;;;;;0.40;0.40;;;10.50;99.90;;;;;;5036537;28;20040;-79
2023/03/09 02:09:48;;;;;;;1.23;0.50;;;10.50;99.90;;;;;;5042046;28;20152;-79
2023/03/09 02:12:18;;;;;;;0.77;0.50;;;10.60;99.90;;;;;;5040154;28;20040;-80
2023/03/09 02:14:43;;;;;;;0.40;0.40;;;10.60;99.90;;;;;;5043729;28;20045;-79
2023/03/09 02:17:13;;;;;;;0.47;0.47;;;10.60;99.90;;;;;;5037661;28;20048;-79
2023/03/09 02:20:07;;;;;;;0.40;0.40;;;10.60;99.90;;;;;;5042292;28;20029;-80
2023/03/09 02:22:36;;;;;;;0.50;0.50;;;10.60;99.90;;;;;;5044776;28;20390;-79
2023/03/09 02:25:10;;;;;;;1.27;0.50;;;10.60;99.90;;;;;;5042504;28;20099;-79
2023/03/09 02:27:36;;;;;;;0.60;0.53;;;10.50;99.90;;;;;;5038490;28;20105;-79
2023/03/09 02:30:02;;;;;;;3.07;0.50;;;10.60;99.90;;;;;;5042735;28;20174;-79
2023/03/09 02:32:31;;;;;;;0.60;0.60;;;10.50;99.90;;;;;;5041019;28;20070;-79
2023/03/09 02:34:57;;;;;;;1.97;0.70;;;10.50;99.90;;;;;;5033614;28;20021;-78
2023/03/09 02:37:33;;;;;;;6.70;1.70;;;10.40;99.90;;;;;;5036691;28;20363;-78
2023/03/09 02:40:21;;;;;;;4.70;0.80;;;10.10;99.90;;;;;;5045632;28;20064;-78
2023/03/09 02:42:48;;;;;;;3.57;0.70;;;9.50;99.90;;;;;;5036166;28;20022;-79
2023/03/09 02:45:16;;;;;;;1.33;0.70;;;9.00;99.90;;;;;;5030861;28;20377;-79
2023/03/09 02:47:42;;;;;;;1.33;0.63;;;8.70;99.90;;;;;;5042330;28;20053;-78
2023/03/09 02:50:09;;;;;;;3.10;0.90;;;8.50;99.90;;;;;;5038907;28;20112;-84
2023/03/09 02:52:35;;;;;;;1.57;0.80;;;8.20;99.90;;;;;;5036082;28;20029;-84
2023/03/09 02:55:01;;;;;;;3.03;0.80;;;8.10;99.90;;;;;;5053019;28;20032;-84
2023/03/09 02:57:26;;;;;;;3.60;0.90;;;8.00;99.90;;;;;;5040127;28;20025;-84
2023/03/09 02:59:52;;;;;;;2.37;0.80;;;7.90;99.90;;;;;;5039160;28;20087;-84
2023/03/09 03:02:17;;;;;;;1.40;0.60;;;7.90;99.90;;;;;;5038918;28;20413;-84
2023/03/09 03:04:43;;;;;;;2.30;0.90;;;8.00;99.90;;;;;;5038125;28;20410;-83
2023/03/09 03:07:09;;;;;;;1.57;0.60;;;8.20;99.90;;;;;;5040187;28;20116;-84
2023/03/09 03:09:34;;;;;;;2.00;0.60;;;8.20;99.90;;;;;;5040204;28;20017;-84
2023/03/09 03:12:00;;;;;;;2.13;0.67;;;8.30;99.90;;;;;;5033618;28;20569;-84
2023/03/09 03:14:25;;;;;;;3.00;0.60;;;8.30;99.90;;;;;;5035536;28;20070;-84
2023/03/09 03:16:51;;;;;;;1.20;0.73;;;8.40;99.90;;;;;;5040544;28;20544;-84
2023/03/09 03:19:16;;;;;;;1.73;0.77;;;8.40;99.90;;;;;;5044411;28;20025;-84
2023/03/09 03:21:42;;;;;;;1.33;0.60;;;8.50;99.90;;;;;;5038224;28;20501;-84
2023/03/09 03:24:08;;;;;;;1.67;0.60;;;8.60;99.90;;;;;;5038384;28;20068;-84
2023/03/09 03:26:33;;;;;;;3.40;0.83;;;8.60;99.90;;;;;;5040921;28;20056;-83
2023/03/09 03:28:59;;;;;;;2.70;0.83;;;8.50;99.90;;;;;;5039961;28;20067;-83
2023/03/09 03:31:24;;;;;;;0.63;0.60;;;8.50;99.90;;;;;;5041243;28;20472;-84
2023/03/09 03:33:50;;;;;;;1.47;0.90;;;8.50;99.90;;;;;;5039864;28;20028;-83
2023/03/09 03:36:15;;;;;;;1.53;0.80;;;8.50;99.90;;;;;;5040272;28;20080;-83
2023/03/09 03:38:41;;;;;;;2.33;0.77;;;8.60;99.90;;;;;;5041668;28;20048;-84
2023/03/09 03:41:06;;;;;;;1.90;0.80;;;8.70;99.90;;;;;;5040161;28;20021;-83
2023/03/09 03:43:32;;;;;;;1.43;0.80;;;8.60;99.90;;;;;;5039693;28;20026;-83
2023/03/09 03:45:57;;;;;;;0.90;0.70;;;8.60;99.90;;;;;;5038245;28;20025;-83
2023/03/09 03:48:23;;;;;;;2.00;0.70;;;8.70;99.90;;;;;;5037639;28;20048;-84
2023/03/09 03:50:48;;;;;;;1.03;0.90;;;8.60;99.90;;;;;;5038122;28;20513;-84
2023/03/09 03:53:14;;;;;;;1.20;0.80;;;8.50;99.90;;;;;;5037754;28;20025;-83
2023/03/09 03:55:39;;;;;;;2.07;0.80;;;8.50;99.90;;;;;;5039061;28;20021;-84
2023/03/09 03:58:05;;;;;;;2.67;0.80;;;8.60;99.90;;;;;;5038904;28;20020;-84
2023/03/09 04:00:31;;;;;;;1.30;0.80;;;8.50;99.90;;;;;;5038049;28;20024;-84
2023/03/09 04:02:56;;;;;;;1.63;0.83;;;8.50;99.90;;;;;;5038598;28;20079;-83
2023/03/09 04:05:22;;;;;;;1.43;0.80;;;8.40;99.90;;;;;;5037196;28;20879;-83
2023/03/09 04:07:48;;;;;;;1.17;0.77;;;8.40;99.90;;;;;;5038840;28;20021;-84
2023/03/09 04:10:14;;;;;;;1.60;0.80;;;8.40;99.90;;;;;;5040887;28;20021;-83
2023/03/09 04:12:39;;;;;;;2.37;0.90;;;8.40;99.90;;;;;;5038676;28;20025;-84
2023/03/09 04:15:05;;;;;;;1.30;0.77;;;8.50;99.90;;;;;;5037029;28;20021;-83
2023/03/09 04:17:31;;;;;;;1.37;0.70;;;8.50;99.90;;;;;;5037390;28;20040;-84
2023/03/09 04:19:56;;;;;;;2.20;0.87;;;8.50;99.90;;;;;;5038918;28;20035;-84
2023/03/09 04:22:22;;;;;;;4.73;2.07;;;8.60;99.90;;;;;;5034528;28;20070;-84
2023/03/09 04:24:48;;;;;;;3.10;1.07;;;8.60;99.90;;;;;;5035782;28;20028;-84
2023/03/09 04:27:14;;;;;;;5.07;1.20;;;8.60;99.90;;;;;;5037701;28;20029;-84
2023/03/09 04:29:40;;;;;;;3.27;1.00;;;8.60;99.90;;;;;;5036362;28;20071;-84
2023/03/09 04:32:06;;;;;;;1.63;0.97;;;8.60;99.90;;;;;;5034984;28;20025;-84
2023/03/09 04:34:31;;;;;;;1.80;1.20;;;8.70;99.90;;;;;;5035774;28;20029;-84
2023/03/09 04:36:57;;;;;;;2.30;1.10;;;8.60;99.90;;;;;;5038664;28;20492;-84
2023/03/09 04:39:23;;;;;;;1.97;1.10;;;8.60;99.90;;;;;;5038268;28;20474;-84
2023/03/09 04:41:48;;;;;;;2.53;1.00;;;8.50;99.90;;;;;;5038469;28;20899;-84
2023/03/09 04:44:16;;;;;;;3.83;1.10;;;8.60;99.90;;;;;;5036658;28;20052;-84
2023/03/09 04:46:42;;;;;;;2.63;1.20;;;8.70;99.90;;;;;;5036643;28;20026;-84
2023/03/09 04:49:07;;;;;;;1.37;1.10;;;8.70;99.90;;;;;;5037333;28;20047;-83
2023/03/09 04:51:33;;;;;;;3.77;1.17;;;8.70;99.90;;;;;;5037175;28;20021;-84
2023/03/09 04:54:00;;;;;;;2.57;1.00;;;8.80;99.90;;;;;;5034448;28;20051;-84
2023/03/09 04:56:25;;;;;;;2.60;0.83;;;8.80;99.90;;;;;;5036248;28;20021;-84
2023/03/09 04:58:51;;;;;;;2.30;0.87;;;8.70;99.90;;;;;;5036992;28;20037;-84
2023/03/09 05:01:16;;;;;;;1.53;0.93;;;8.70;99.90;;;;;;5033684;28;20033;-84
2023/03/09 05:03:42;;;;;;;1.10;0.60;;;8.70;99.90;;;;;;5039289;28;20060;-83
2023/03/09 05:06:08;;;;;;;1.70;0.80;;;8.70;99.90;;;;;;5039581;28;20041;-83
2023/03/09 05:08:34;;;;;;;2.83;0.70;;;8.80;99.90;;;;;;5035396;28;20024;-83
2023/03/09 05:10:59;;;;;;;1.83;0.70;;;8.70;99.90;;;;;;5036096;28;20112;-87
2023/03/09 05:13:25;;;;;;;2.17;0.90;;;8.70;99.90;;;;;;5035596;28;20055;-82
2023/03/09 05:15:50;;;;;;;1.50;0.73;;;8.70;99.90;;;;;;5036077;28;20064;-83
2023/03/09 05:18:16;;;;;;;1.73;0.70;;;8.70;99.90;;;;;;5033109;28;20473;-83
2023/03/09 05:20:41;;;;;;;1.80;0.67;;;8.60;99.90;;;;;;5036546;28;20175;-84
2023/03/09 05:23:07;;;;;;;3.90;1.37;;;8.60;99.90;;;;;;5031967;28;20040;-83
2023/03/09 05:25:33;;;;;;;3.50;1.00;;;8.50;99.90;;;;;;5031639;28;20025;-84
2023/03/09 05:27:58;;;;;;;1.03;0.70;;;8.60;99.90;;;;;;5034917;28;20494;-84
2023/03/09 05:30:24;;;;;;;0.97;0.60;;;8.60;99.90;;;;;;5034148;28;20033;-84
2023/03/09 05:32:50;;;;;;;0.73;0.70;;;8.60;99.90;;;;;;5032243;28;20367;-84
2023/03/09 05:35:19;;;;;;;2.33;0.80;;;8.70;99.90;;;;;;5033303;28;20751;-84
2023/03/09 05:37:46;;;;;;;0.63;0.50;;;8.60;99.90;;;;;;5035625;28;20025;-84
2023/03/09 05:40:13;;;;;;;1.00;0.63;;;8.50;99.90;;;;;;5035718;28;20482;-84
2023/03/09 05:42:40;;;;;;;0.70;0.57;;;8.50;99.90;;;;;;5031795;28;20111;-84
2023/03/09 05:45:06;;;;;;;1.13;0.80;;;8.50;99.90;;;;;;5036210;28;20025;-84
2023/03/09 05:47:32;;;;;;;1.17;0.50;;;8.50;99.90;;;;;;5031266;28;20050;-84
2023/03/09 05:49:57;;;;;;;1.00;0.50;;;8.50;99.90;;;;;;5032872;28;20061;-84
2023/03/09 05:52:24;;;;;;;2.10;0.50;;;8.40;99.90;;;;;;5034746;28;20450;-84
2023/03/09 05:54:49;;;;;;;1.33;0.60;;;8.40;99.90;;;;;;5033060;28;20112;-83
2023/03/09 05:57:15;;;;;;;1.93;0.60;;;8.50;99.90;;;;;;5029140;28;20135;-84
2023/03/09 05:59:41;;;;;;;1.13;0.73;;;8.50;99.90;;;;;;5026679;28;20022;-84
2023/03/09 06:02:07;;;;;;;2.27;0.80;;;8.50;99.90;;;;;;5022917;28;20091;-84
2023/03/09 06:04:33;;;;;;;2.37;0.83;;;8.40;99.90;;;;;;5025159;28;20048;-84
2023/03/09 06:06:59;;;;;;;0.93;0.70;;;8.40;99.90;;;;;;5023749;28;20099;-83
2023/03/09 06:09:25;;;;;;;1.50;0.60;;;8.30;99.90;;;;;;5027217;28;20034;-84
2023/03/09 06:11:51;;;;;;;1.63;0.80;;;8.30;99.90;;;;;;5031793;28;20025;-83
2023/03/09 06:14:17;;;;;;;2.77;1.10;;;8.20;99.90;;;;;;5029438;28;20060;-84
2023/03/09 06:16:42;;;;;;;1.03;0.70;;;8.20;99.90;;;;;;5033438;28;20648;-84
2023/03/09 06:19:08;;;;;;;1.87;0.80;;;8.20;99.90;;;;;;5031157;28;20033;-83
2023/03/09 06:21:34;;;;;;;1.87;0.80;;;8.20;99.90;;;;;;5030374;28;20052;-83
2023/03/09 06:24:00;;;;;;;1.80;0.60;;;8.10;99.90;;;;;;5027192;28;20466;-79
2023/03/09 06:26:26;;;;;;;1.03;0.60;;;8.10;99.90;;;;;;5029665;28;20092;-79
2023/03/09 06:28:51;;;;;;;0.93;0.63;;;8.10;99.90;;;;;;5031596;28;20025;-79
2023/03/09 06:31:17;;;;;;;1.83;0.70;;;8.00;99.90;;;;;;5030376;28;20029;-79
2023/03/09 06:34:02;;;;;;;3.07;1.57;;;8.00;99.90;;;;;;5030956;28;20032;-81
2023/03/09 06:36:28;;;;;;;1.73;1.07;;;7.90;99.90;;;;;;5029488;28;20033;-83
2023/03/09 06:38:53;;;;;;;1.13;0.53;;;7.90;99.90;;;;;;5029753;28;20474;-82
2023/03/09 06:41:29;;;;;;;1.07;0.63;;;7.90;99.90;;;;;;5031428;28;20074;-82
2023/03/09 06:43:55;;;;;;;1.52;0.70;;;7.90;99.90;;;;;;5027747;28;20052;-79
2023/03/09 06:46:20;;;;;;;3.50;0.80;;;7.90;99.90;;;;;;5025178;28;20061;-80
2023/03/09 06:48:46;;;;;;;2.33;0.93;;;7.90;99.90;;;;;;5023576;28;20383;-79
2023/03/09 06:51:11;;;;;;;2.43;1.00;;;8.00;99.90;;;;;;5029729;28;20037;-80
2023/03/09 06:53:37;;;;;;;1.90;1.00;;;7.90;99.90;;;;;;5032389;28;20071;-80
2023/03/09 06:56:03;;;;;;;1.43;0.80;;;8.00;99.90;;;;;;5025260;28;20369;-79
2023/03/09 06:58:30;;;;;;;1.50;0.90;;;8.00;99.90;;;;;;5024858;28;20192;-80
2023/03/09 07:00:55;;;;;;;3.00;0.70;;;8.00;99.90;;;;;;5030465;28;20419;-80
2023/03/09 07:03:21;;;;;;;2.30;0.80;;;8.00;99.90;;;;;;5028899;28;20109;-80
2023/03/09 07:05:47;;;;;;;1.57;0.70;;;8.00;99.90;;;;;;5030734;28;20052;-80
2023/03/09 07:08:14;;;;;;;2.27;0.90;;;8.10;99.90;;;;;;5029655;28;20068;-79
2023/03/09 07:10:41;;;;;;;3.80;0.80;;;8.10;99.90;;;;;;5026162;28;20014;-80
2023/03/09 07:13:13;;;;;;;2.07;1.00;;;8.10;99.90;;;;;;5032323;28;20026;-80
2023/03/09 07:15:38;;;;;;;2.33;0.77;;;8.20;99.90;;;;;;5032720;28;20522;-80
2023/03/09 07:18:04;;;;;;;2.23;1.10;;;8.20;99.90;;;;;;5027580;28;20101;-80
2023/03/09 07:20:29;;;;;;;3.10;0.97;;;8.10;99.90;;;;;;5024149;28;20022;-80
2023/03/09 07:22:55;;;;;;;1.53;0.70;;;8.20;99.90;;;;;;5028445;28;20370;-80
2023/03/09 07:25:23;;;;;;;2.17;0.80;;;8.20;99.90;;;;;;5027046;28;20080;-80
2023/03/09 07:27:49;;;;;;;0.80;0.70;;;8.20;99.90;;;;;;5027200;28;20505;-80
2023/03/09 07:30:17;;;;;;;0.87;0.53;;;8.20;99.90;;;;;;5034840;28;20017;-80
2023/03/09 07:32:45;;;;;;;0.83;0.60;;;8.30;99.90;;;;;;5033527;28;20025;-80
2023/03/09 07:35:11;;;;;;;2.00;0.67;;;8.30;99.90;;;;;;5025532;28;20498;-80
2023/03/09 07:37:37;;;;;;;1.90;0.60;;;8.30;99.90;;;;;;5038071;28;20022;-80
2023/03/09 07:40:03;;;;;;;1.07;0.70;;;8.40;99.90;;;;;;5041665;28;20040;-80
2023/03/09 07:42:28;;;;;;;2.20;0.70;;;8.50;99.90;;;;;;5035763;28;20025;-80
2023/03/09 07:44:56;;;;;;;2.47;0.70;;;8.60;99.90;;;;;;5038758;28;20017;-81
2023/03/09 07:47:24;;;;;;;5.57;0.80;;;8.70;99.90;;;;;;5038950;28;20049;-80
2023/03/09 07:49:49;;;;;;;2.40;0.97;;;8.80;99.90;;;;;;5034048;28;20085;-80
2023/03/09 07:52:15;;;;;;;2.07;0.90;;;8.90;99.90;;;;;;5038056;28;20036;-80
2023/03/09 07:54:43;;;;;;;0.93;0.60;;;9.10;99.90;;;;;;5031311;28;20032;-80
2023/03/09 07:57:08;;;;;;;3.20;0.90;;;9.20;99.90;;;;;;5037435;28;20025;-80
2023/03/09 07:59:36;;;;;;;2.83;0.70;;;9.30;99.90;;;;;;5039195;28;20047;-80
2023/03/09 08:02:09;;;;;;;1.90;0.80;;;9.40;99.90;;;;;;5029286;28;20440;-79
2023/03/09 08:04:38;;;;;;;2.77;0.80;;;9.50;99.90;;;;;;5037841;28;20510;-80
2023/03/09 08:07:05;;;;;;;3.93;0.73;;;9.80;99.90;;;;;;5031591;28;20014;-80
2023/03/09 08:09:37;;;;;;;1.10;0.60;;;9.90;99.90;;;;;;5040011;28;20543;-80
2023/03/09 08:12:08;;;;;;;2.10;0.73;;;10.10;99.90;;;;;;5026991;28;20048;-80
2023/03/09 08:14:36;;;;;;;2.47;0.83;;;10.10;99.90;;;;;;5032188;28;20030;-80
2023/03/09 08:17:19;;;;;;;1.87;0.83;;;10.10;99.90;;;;;;5035529;28;20017;-80
2023/03/09 08:19:47;;;;;;;2.07;0.80;;;10.10;99.90;;;;;;5035101;28;20024;-80
2023/03/09 08:22:29;;;;;;;2.17;0.83;;;10.10;99.90;;;;;;5042362;28;20040;-81
2023/03/09 08:24:57;;;;;;;7.00;0.90;;;10.10;99.90;;;;;;5029493;28;20075;-80
2023/03/09 08:27:46;;;;;;;5.87;1.30;;;10.10;99.90;;;;;;5039961;28;20028;-82
2023/03/09 08:30:16;;;;;;;5.23;1.27;;;10.20;99.90;;;;;;5031658;28;20021;-82
2023/03/09 08:32:47;;;;;;;2.93;1.00;;;10.30;99.90;;;;;;5030520;28;20025;-82
2023/03/09 08:35:14;;;;;;;5.83;1.07;;;10.20;99.90;;;;;;5019477;28;20050;-81
2023/03/09 08:37:40;;;;;;;4.33;1.00;;;10.20;99.90;;;;;;5023462;28;20021;-81
2023/03/09 08:40:06;;;;;;;2.47;1.00;;;10.20;99.90;;;;;;5032098;28;20010;-80
2023/03/09 08:42:34;;;;;;;2.60;0.90;;;10.20;99.90;;;;;;5033535;28;20029;-87
2023/03/09 08:45:00;;;;;;;1.93;0.90;;;10.20;99.90;;;;;;5035244;28;20022;-80
2023/03/09 08:47:26;;;;;;;2.27;1.27;;;10.30;99.90;;;;;;5035222;28;20052;-80
2023/03/09 08:49:52;;;;;;;2.47;0.87;;;10.30;99.90;;;;;;5034757;28;20378;-82
2023/03/09 08:52:18;;;;;;;2.87;1.13;;;10.40;99.90;;;;;;5035310;28;20501;-81
2023/03/09 08:54:46;;;;;;;3.60;1.20;;;10.60;99.90;;;;;;5031202;28;20148;-82
2023/03/09 08:57:14;;;;;;;2.63;1.00;;;10.70;99.90;;;;;;5029058;28;20033;-82
2023/03/09 08:59:39;;;;;;;2.53;1.00;;;10.80;99.90;;;;;;5044665;28;20021;-82
2023/03/09 09:02:05;;;;;;;2.67;0.97;;;10.80;99.90;;;;;;5028441;28;20074;-81
2023/03/09 09:04:39;;;;;;;8.30;1.17;;;10.90;99.90;;;;;;5029840;28;20521;-82
2023/03/09 09:10:10;;;;;;;4.07;1.00;;;10.90;99.90;;;;;;5032743;28;20037;-82
2023/03/09 09:12:37;;;;;;;3.47;1.23;;;11.00;99.90;;;;;;5030930;28;20022;-82
2023/03/09 09:15:13;;;;;;;6.60;1.13;;;11.20;99.90;;;;;;5032250;28;20021;-82
2023/03/09 09:17:38;;;;;;;4.20;1.17;;;11.40;99.90;;;;;;5028294;28;20029;-82
2023/03/09 09:20:08;;;;;;;3.00;1.10;;;11.50;99.90;;;;;;5027670;28;20039;-82
2023/03/09 09:22:39;;;;;;;3.97;1.20;;;11.40;99.90;;;;;;5043070;28;20028;-81
2023/03/09 09:25:08;;;;;;;4.37;1.30;;;11.50;99.90;;;;;;5045771;28;22075;-82
2023/03/09 09:27:37;;;;;;;4.53;1.20;;;11.30;99.90;;;;;;5031066;28;20033;-82
2023/03/09 09:30:17;;;;;;;3.43;1.00;;;11.20;99.90;;;;;;5028905;28;20014;-83
2023/03/09 09:32:49;;;;;;;8.83;1.40;;;11.20;99.90;;;;;;5028319;28;20021;-81
2023/03/09 09:35:23;;;;;;;4.90;1.33;;;11.10;99.90;;;;;;5027155;28;20026;-82
2023/03/09 09:37:49;;;;;;;6.80;1.45;;;11.20;99.90;;;;;;5043763;28;20065;-81
2023/03/09 09:40:18;;;;;;;4.97;1.57;;;11.20;99.90;;;;;;5024895;28;20446;-82
2023/03/09 09:42:47;;;;;;;6.60;1.63;;;11.20;99.90;;;;;;5025131;28;20044;-81
2023/03/09 09:45:37;;;;;;;7.00;1.57;;;11.10;99.90;;;;;;5027625;28;20030;-81
2023/03/09 09:48:18;;;;;;;7.20;1.30;;;11.00;99.90;;;;;;5019873;28;20042;-81
2023/03/09 09:51:19;;;;;;;5.83;1.30;;;11.00;99.90;;;;;;5026430;28;20045;-81
2023/03/09 09:53:58;;;;;;;5.28;1.70;;;11.20;99.90;;;;;;5027966;28;20021;-82
2023/03/09 09:56:49;;;;;;;6.10;1.20;;;11.30;99.90;;;;;;5025516;28;20033;-82
2023/03/09 09:59:30;;;;;;;3.57;1.20;;;11.40;99.90;;;;;;5023331;28;20042;-81
2023/03/09 10:02:30;;;;;;;15.77;1.80;;;11.20;99.90;;;;;;5029757;28;20026;-81
2023/03/09 10:05:08;;;;;;;5.23;1.50;;;11.10;99.90;;;;;;5026220;28;20021;-81
2023/03/09 10:07:40;;;;;;;3.07;1.00;;;11.00;99.90;;;;;;5026980;28;20117;-81
2023/03/09 10:10:26;;;;;;;2.80;0.97;;;10.90;99.90;;;;;;5023391;28;20100;-81
2023/03/09 10:13:29;;;;;;;3.30;1.20;;;11.00;99.90;;;;;;5025763;28;20096;-85
2023/03/09 10:16:09;;;;;;;7.03;1.00;;;11.00;99.90;;;;;;5027136;28;20031;-85
2023/03/09 10:21:56;;;;;;;2.33;1.03;;;11.20;99.90;;;;;;5024819;28;20474;-85
2023/03/09 10:24:50;;;;;;;2.00;1.00;;;11.00;99.90;;;;;;5026224;28;20041;-80
2023/03/09 10:27:27;;;;;;;1.87;0.77;;;11.00;99.90;;;;;;5029203;28;20014;-83
2023/03/09 10:30:30;;;;;;;2.10;1.03;;;11.00;99.90;;;;;;5028594;28;20036;-84
2023/03/09 10:33:04;;;;;;;1.37;0.83;;;11.00;99.90;;;;;;5030134;28;20088;-85
2023/03/09 10:36:13;;;;;;;6.97;2.30;;;11.00;99.90;;;;;;5027253;28;20070;-85
2023/03/09 10:38:39;;;;;;;2.93;1.10;;;11.00;99.90;;;;;;5023007;28;20121;-85
2023/03/09 10:41:17;;;;;;;3.77;0.90;;;11.10;99.90;;;;;;5026409;28;20029;-84
2023/03/09 10:43:44;;;;;;;4.30;0.80;;;11.10;99.90;;;;;;5025923;28;20113;-85
2023/03/09 10:46:27;;;;;;;1.93;0.67;;;11.00;99.90;;;;;;5027524;28;20049;-85
2023/03/09 10:49:14;;;;;;;3.67;0.90;;;11.00;99.90;;;;;;5025015;28;21104;-85
2023/03/09 10:51:53;;;;;;;2.85;0.75;;;11.20;99.90;;;;;;5028572;28;20041;-86
2023/03/09 10:54:27;;;;;;;4.60;1.00;;;11.40;99.90;;;;;;5023572;28;20382;-85
2023/03/09 10:56:53;;;;;;;3.07;1.00;;;11.60;99.90;;;;;;5028308;28;20083;-86
2023/03/09 10:59:24;;;;;;;3.70;0.90;;;11.70;99.90;;;;;;5024098;28;20030;-85
2023/03/09 11:01:53;;;;;;;4.37;1.47;;;11.70;99.90;;;;;;5027524;28;20512;-85
2023/03/09 11:04:21;;;;;;;3.88;1.02;;;11.60;99.90;;;;;;5025717;28;20406;-85
2023/03/09 11:06:53;;;;;;;1.67;0.77;;;11.60;99.90;;;;;;5026041;28;20029;-84
2023/03/09 11:09:24;;;;;;;3.42;1.00;;;11.70;99.90;;;;;;5024772;28;20036;-84
2023/03/09 11:11:49;;;;;;;3.63;1.00;;;11.70;99.90;;;;;;5025259;28;20064;-84
2023/03/09 11:14:29;;;;;;;5.13;1.33;;;11.60;99.90;;;;;;5027472;28;20100;-85
2023/03/09 11:16:57;;;;;;;4.97;1.00;;;11.60;99.90;;;;;;5028532;28;20037;-84
2023/03/09 11:19:23;;;;;;;2.88;1.20;;;11.70;99.90;;;;;;5022633;28;20048;-84
2023/03/09 11:21:59;;;;;;;3.80;1.50;;;11.80;99.90;;;;;;5028076;28;20026;-84
2023/03/09 11:24:32;;;;;;;4.45;1.45;;;11.80;99.90;;;;;;5025905;28;20025;-85
2023/03/09 11:27:03;;;;;;;5.57;1.20;;;11.80;99.90;;;;;;5026800;28;20044;-85
2023/03/09 11:29:54;;;;;;;4.63;0.90;;;11.80;99.90;;;;;;5025736;28;20021;-85
2023/03/09 11:32:21;;;;;;;3.20;0.98;;;11.80;99.90;;;;;;5027813;28;20738;-84
2023/03/09 11:34:47;;;;;;;15.98;2.38;;;11.90;99.90;;;;;;5026469;28;20017;-85
2023/03/09 11:37:18;;;;;;;4.28;0.93;;;12.00;99.90;;;;;;5024854;28;20033;-86
2023/03/09 11:39:52;;;;;;;3.80;0.90;;;12.20;99.90;;;;;;5039779;28;20025;-86
2023/03/09 11:42:40;;;;;;;4.13;1.02;;;12.40;99.90;;;;;;5025621;28;21286;-85
2023/03/09 11:45:19;;;;;;;3.50;1.20;;;12.70;99.90;;;;;;5028776;28;20108;-86
2023/03/09 11:47:55;;;;;;;2.80;1.00;;;13.10;99.90;;;;;;5028605;28;20041;-86
2023/03/09 11:51:01;;;;;;;4.53;1.48;;;13.50;99.90;;;;;;5036867;28;20021;-86
2023/03/09 11:53:33;;;;;;;;;;;13.60;99.90;;;;;;5035575;28;20079;-86
2023/03/09 11:56:26;;;;;;;3.28;1.10;;;13.70;99.90;;;;;;5033332;28;19908;-86
2023/03/09 11:58:58;;;;;;;3.03;1.30;;;14.00;99.90;;;;;;5031644;28;20091;-86
2023/03/09 12:01:27;;;;;;;4.38;1.25;;;14.20;99.90;;;;;;5034718;28;20045;-83
2023/03/09 12:03:59;;;;;;;3.53;1.02;;;14.40;99.90;;;;;;5032676;28;20132;-83
2023/03/09 12:06:37;;;;;;;2.90;0.95;;;14.60;99.90;;;;;;5035275;28;20028;-85
2023/03/09 12:09:07;;;;;;;5.28;1.25;;;14.10;99.90;;;;;;5033377;28;20044;-86
2023/03/09 12:11:42;;;;;;;5.63;1.23;;;14.00;99.90;;;;;;5036020;28;20041;-84
2023/03/09 12:14:22;;;;;;;4.90;1.20;;;14.10;99.90;;;;;;5032058;28;21393;-84
2023/03/09 12:16:51;;;;;;;9.63;1.17;;;14.20;99.90;;;;;;5033568;28;21326;-84
2023/03/09 12:19:20;;;;;;;8.48;1.58;;;14.50;99.90;;;;;;5029832;28;20032;-84
2023/03/09 12:22:05;;;;;;;3.97;1.20;;;14.70;99.90;;;;;;5035369;28;20036;-85
2023/03/09 12:24:38;;;;;;;5.25;1.20;;;15.00;99.90;;;;;;5032679;28;20475;-84
2023/03/09 12:27:18;;;;;;;7.55;1.45;;;15.10;99.90;;;;;;5033803;28;20029;-86
2023/03/09 12:29:49;;;;;;;3.80;1.13;;;15.20;99.90;;;;;;5035393;28;20025;-86
2023/03/09 12:32:20;;;;;;;3.78;1.05;;;15.30;99.90;;;;;;5038093;28;20057;-85
2023/03/09 12:34:48;;;;;;;3.70;1.02;;;15.40;99.90;;;;;;5037723;28;20065;-86
2023/03/09 12:37:36;;;;;;;2.67;1.00;;;15.40;99.90;;;;;;5039009;28;20489;-86
2023/03/09 12:40:04;;;;;;;3.92;1.30;;;15.50;99.90;;;;;;5032035;28;20450;-85
2023/03/09 12:42:39;;;;;;;3.35;0.88;;;15.50;99.90;;;;;;5035544;28;20017;-86
2023/03/09 12:45:10;;;;;;;4.78;0.90;;;15.30;99.90;;;;;;5032773;28;20020;-85
2023/03/09 12:47:50;;;;;;;2.65;1.00;;;15.40;99.90;;;;;;5034046;28;20412;-87
2023/03/09 12:50:41;;;;;;;3.63;0.90;;;15.30;99.90;;;;;;5037749;28;20466;-86
2023/03/09 12:53:22;;;;;;;3.47;1.30;;;15.20;99.90;;;;;;5034515;28;20482;-86
2023/03/09 12:55:53;;;;;;;6.68;1.13;;;15.30;99.90;;;;;;5032020;28;20064;-86
2023/03/09 12:58:21;;;;;;;5.15;1.17;;;15.40;99.90;;;;;;5031728;28;20842;-86
2023/03/09 13:01:16;;;;;;;7.72;1.30;;;15.60;99.90;;;;;;5031896;28;20055;-86
2023/03/09 13:03:46;;;;;;;2.67;0.90;;;15.40;99.90;;;;;;5029903;28;20489;-86
2023/03/09 13:06:50;;;;;;;4.57;1.10;;;15.40;99.90;;;;;;5033215;28;20103;-86
2023/03/09 13:09:24;;;;;;;3.15;1.10;;;15.50;99.90;;;;;;5033992;28;20585;-87
2023/03/09 13:12:03;;;;;;;4.30;1.05;;;15.50;99.90;;;;;;5031371;28;20021;-87